sensor_id;sensor_type;location;lat;lon;timestamp;pressure;altitude;pressure_sealevel;temperature;humidity
42771;BME280;28426;42.872;25.314;2023-02-17T00:02:18;97785.47;;;-2.48;85.45
42771;BME280;28426;42.872;25.314;2023-02-17T00:04:52;97781.63;;;-2.57;86.65
42771;BME280;28426;42.872;25.314;2023-02-17T00:07:23;97776.06;;;-2.67;87.09
42771;BME280;28426;42.872;25.314;2023-02-17T00:09:57;97788.78;;;-2.61;89.14
42771;BME280;28426;42.872;25.314;2023-02-17T00:12:28;97777.06;;;-2.54;88.81
42771;BME280;28426;42.872;25.314;2023-02-17T00:14:59;97768.47;;;-2.56;86.27
42771;BME280;28426;42.872;25.314;2023-02-17T00:17:30;97762.84;;;-2.64;85.27
42771;BME280;28426;42.872;25.314;2023-02-17T00:20:04;97772.03;;;-2.73;86.28
42771;BME280;28426;42.872;25.314;2023-02-17T00:22:35;97768.91;;;-2.80;86.88
42771;BME280;28426;42.872;25.314;2023-02-17T00:25:05;97769.41;;;-2.89;87.75
42771;BME280;28426;42.872;25.314;2023-02-17T00:27:36;97768.16;;;-2.82;90.12
42771;BME280;28426;42.872;25.314;2023-02-17T00:30:07;97758.97;;;-2.73;89.93
42771;BME280;28426;42.872;25.314;2023-02-17T00:32:38;97759.63;;;-2.69;86.97
42771;BME280;28426;42.872;25.314;2023-02-17T00:35:11;97748.75;;;-2.78;86.23
42771;BME280;28426;42.872;25.314;2023-02-17T00:37:42;97744.63;;;-2.82;86.68
42771;BME280;28426;42.872;25.314;2023-02-17T00:40:13;97748.84;;;-2.79;88.83
42771;BME280;28426;42.872;25.314;2023-02-17T00:42:44;97740.69;;;-2.73;89.63
42771;BME280;28426;42.872;25.314;2023-02-17T00:45:16;97742.00;;;-2.66;87.29
42771;BME280;28426;42.872;25.314;2023-02-17T00:47:47;97732.56;;;-2.68;85.61
42771;BME280;28426;42.872;25.314;2023-02-17T00:50:20;97726.84;;;-2.75;85.66
42771;BME280;28426;42.872;25.314;2023-02-17T00:52:51;97732.41;;;-2.65;88.67
42771;BME280;28426;42.872;25.314;2023-02-17T00:55:21;97725.06;;;-2.58;87.47
42771;BME280;28426;42.872;25.314;2023-02-17T00:57:52;97724.78;;;-2.54;85.53
42771;BME280;28426;42.872;25.314;2023-02-17T01:00:23;97724.13;;;-2.57;84.11
42771;BME280;28426;42.872;25.314;2023-02-17T01:02:54;97728.00;;;-2.65;83.78
42771;BME280;28426;42.872;25.314;2023-02-17T01:05:27;97717.41;;;-2.78;83.90
42771;BME280;28426;42.872;25.314;2023-02-17T01:07:58;97712.88;;;-2.90;85.14
42771;BME280;28426;42.872;25.314;2023-02-17T01:10:29;97712.38;;;-2.97;86.83
42771;BME280;28426;42.872;25.314;2023-02-17T01:13:00;97716.06;;;-3.01;87.14
42771;BME280;28426;42.872;25.314;2023-02-17T01:15:30;97707.72;;;-3.08;87.52
42771;BME280;28426;42.872;25.314;2023-02-17T01:18:02;97705.72;;;-3.03;89.33
42771;BME280;28426;42.872;25.314;2023-02-17T01:20:36;97701.75;;;-2.94;89.93
42771;BME280;28426;42.872;25.314;2023-02-17T01:23:09;97707.84;;;-2.93;86.49
42771;BME280;28426;42.872;25.314;2023-02-17T01:25:41;97706.84;;;-3.07;84.51
42771;BME280;28426;42.872;25.314;2023-02-17T01:28:14;97702.78;;;-3.12;89.29
42771;BME280;28426;42.872;25.314;2023-02-17T01:30:46;97703.28;;;-3.06;88.35
42771;BME280;28426;42.872;25.314;2023-02-17T01:33:16;97702.78;;;-2.96;88.06
42771;BME280;28426;42.872;25.314;2023-02-17T01:35:49;97704.28;;;-2.92;86.65
42771;BME280;28426;42.872;25.314;2023-02-17T01:38:20;97704.53;;;-2.97;84.76
42771;BME280;28426;42.872;25.314;2023-02-17T01:40:51;97702.59;;;-3.09;84.65
42771;BME280;28426;42.872;25.314;2023-02-17T01:43:22;97704.09;;;-3.21;85.04
42771;BME280;28426;42.872;25.314;2023-02-17T01:45:54;97697.88;;;-3.35;86.45
42771;BME280;28426;42.872;25.314;2023-02-17T01:48:28;97698.38;;;-3.44;87.10
42771;BME280;28426;42.872;25.314;2023-02-17T01:51:06;97700.53;;;-3.52;87.79
42771;BME280;28426;42.872;25.314;2023-02-17T01:53:41;97698.94;;;-3.55;88.96
42771;BME280;28426;42.872;25.314;2023-02-17T01:56:14;97701.06;;;-3.46;91.39
42771;BME280;28426;42.872;25.314;2023-02-17T01:59:03;97692.50;;;-3.32;90.98
42771;BME280;28426;42.872;25.314;2023-02-17T02:01:34;97688.63;;;-3.24;87.55
42771;BME280;28426;42.872;25.314;2023-02-17T02:04:06;97682.78;;;-3.30;85.98
42771;BME280;28426;42.872;25.314;2023-02-17T02:06:44;97671.28;;;-3.25;90.05
42771;BME280;28426;42.872;25.314;2023-02-17T02:09:18;97679.72;;;-3.20;89.15
42771;BME280;28426;42.872;25.314;2023-02-17T02:11:49;97688.72;;;-3.10;87.38
42771;BME280;28426;42.872;25.314;2023-02-17T02:14:21;97677.50;;;-3.12;85.60
42771;BME280;28426;42.872;25.314;2023-02-17T02:16:58;97678.84;;;-3.21;84.65
42771;BME280;28426;42.872;25.314;2023-02-17T02:20:02;97683.06;;;-3.34;84.51
42771;BME280;28426;42.872;25.314;2023-02-17T02:22:59;97674.28;;;-3.49;85.96
42771;BME280;28426;42.872;25.314;2023-02-17T02:28:40;97665.88;;;-3.55;88.35
42771;BME280;28426;42.872;25.314;2023-02-17T02:31:25;97667.56;;;-3.53;88.66
42771;BME280;28426;42.872;25.314;2023-02-17T02:34:03;97667.47;;;-3.52;88.39
42771;BME280;28426;42.872;25.314;2023-02-17T02:36:39;97671.84;;;-3.52;88.43
42771;BME280;28426;42.872;25.314;2023-02-17T02:39:17;97669.22;;;-3.52;88.35
42771;BME280;28426;42.872;25.314;2023-02-17T02:41:50;97664.00;;;-3.52;88.44
42771;BME280;28426;42.872;25.314;2023-02-17T02:44:23;97672.53;;;-3.49;90.56
42771;BME280;28426;42.872;25.314;2023-02-17T02:46:58;97667.66;;;-3.39;91.07
42771;BME280;28426;42.872;25.314;2023-02-17T02:49:34;97667.31;;;-3.33;87.63
42771;BME280;28426;42.872;25.314;2023-02-17T02:52:09;97667.41;;;-3.34;85.91
42771;BME280;28426;42.872;25.314;2023-02-17T02:54:52;97665.47;;;-3.31;90.48
42771;BME280;28426;42.872;25.314;2023-02-17T02:57:35;97673.72;;;-3.22;88.97
42771;BME280;28426;42.872;25.314;2023-02-17T03:00:13;97676.84;;;-3.16;86.21
42771;BME280;28426;42.872;25.314;2023-02-17T03:02:50;97680.38;;;-3.17;85.32
42771;BME280;28426;42.872;25.314;2023-02-17T03:05:31;97681.72;;;-3.25;84.54
42771;BME280;28426;42.872;25.314;2023-02-17T03:08:09;97677.84;;;-3.34;84.45
42771;BME280;28426;42.872;25.314;2023-02-17T03:10:46;97671.34;;;-3.43;85.05
42771;BME280;28426;42.872;25.314;2023-02-17T03:13:19;97666.38;;;-3.48;86.54
42771;BME280;28426;42.872;25.314;2023-02-17T03:15:51;97667.72;;;-3.57;87.28
42771;BME280;28426;42.872;25.314;2023-02-17T03:18:22;97666.03;;;-3.58;87.32
42771;BME280;28426;42.872;25.314;2023-02-17T03:20:56;97675.66;;;-3.58;87.52
42771;BME280;28426;42.872;25.314;2023-02-17T03:23:30;97673.25;;;-3.63;87.68
42771;BME280;28426;42.872;25.314;2023-02-17T03:26:01;97667.38;;;-3.66;88.18
42771;BME280;28426;42.872;25.314;2023-02-17T03:28:32;97679.56;;;-3.67;88.22
42771;BME280;28426;42.872;25.314;2023-02-17T03:31:03;97681.44;;;-3.69;88.36
42771;BME280;28426;42.872;25.314;2023-02-17T03:33:33;97675.53;;;-3.57;90.62
42771;BME280;28426;42.872;25.314;2023-02-17T03:36:07;97666.13;;;-3.43;88.95
42771;BME280;28426;42.872;25.314;2023-02-17T03:38:37;97680.88;;;-3.42;85.88
42771;BME280;28426;42.872;25.314;2023-02-17T03:41:08;97681.03;;;-3.45;85.71
42771;BME280;28426;42.872;25.314;2023-02-17T03:43:38;97676.84;;;-3.32;89.45
42771;BME280;28426;42.872;25.314;2023-02-17T03:46:10;97680.63;;;-3.21;88.53
42771;BME280;28426;42.872;25.314;2023-02-17T03:48:41;97672.13;;;-3.09;86.31
42771;BME280;28426;42.872;25.314;2023-02-17T03:51:16;97687.28;;;-3.16;84.33
42771;BME280;28426;42.872;25.314;2023-02-17T03:53:47;97680.97;;;-3.28;84.52
42771;BME280;28426;42.872;25.314;2023-02-17T03:56:18;97671.97;;;-3.38;85.30
42771;BME280;28426;42.872;25.314;2023-02-17T03:58:49;97687.19;;;-3.46;86.49
42771;BME280;28426;42.872;25.314;2023-02-17T04:01:20;97685.66;;;-3.50;87.13
42771;BME280;28426;42.872;25.314;2023-02-17T04:03:51;97688.44;;;-3.53;87.04
42771;BME280;28426;42.872;25.314;2023-02-17T04:06:24;97677.31;;;-3.57;87.06
42771;BME280;28426;42.872;25.314;2023-02-17T04:08:54;97684.56;;;-3.62;87.19
42771;BME280;28426;42.872;25.314;2023-02-17T04:11:25;97678.97;;;-3.72;86.96
42771;BME280;28426;42.872;25.314;2023-02-17T04:13:55;97680.22;;;-3.79;87.40
42771;BME280;28426;42.872;25.314;2023-02-17T04:16:26;97685.34;;;-3.78;90.38
42771;BME280;28426;42.872;25.314;2023-02-17T04:18:57;97682.19;;;-3.67;90.06
42771;BME280;28426;42.872;25.314;2023-02-17T04:21:30;97688.59;;;-3.57;87.17
42771;BME280;28426;42.872;25.314;2023-02-17T04:24:01;97681.69;;;-3.58;85.79
42771;BME280;28426;42.872;25.314;2023-02-17T04:26:32;97683.06;;;-3.50;90.21
42771;BME280;28426;42.872;25.314;2023-02-17T04:29:02;97684.31;;;-3.42;88.90
42771;BME280;28426;42.872;25.314;2023-02-17T04:31:33;97682.72;;;-3.28;85.90
42771;BME280;28426;42.872;25.314;2023-02-17T04:34:04;97682.91;;;-3.47;80.71
42771;BME280;28426;42.872;25.314;2023-02-17T04:36:37;97691.41;;;-3.77;82.68
42771;BME280;28426;42.872;25.314;2023-02-17T04:39:10;97693.97;;;-3.94;85.48
42771;BME280;28426;42.872;25.314;2023-02-17T04:41:40;97695.34;;;-3.86;90.00
42771;BME280;28426;42.872;25.314;2023-02-17T04:44:11;97687.50;;;-3.86;88.16
42771;BME280;28426;42.872;25.314;2023-02-17T04:46:42;97688.50;;;-3.89;87.52
42771;BME280;28426;42.872;25.314;2023-02-17T04:49:12;97691.31;;;-3.92;87.72
42771;BME280;28426;42.872;25.314;2023-02-17T04:51:45;97688.69;;;-3.92;88.24
42771;BME280;28426;42.872;25.314;2023-02-17T04:54:16;97687.84;;;-3.92;88.28
42771;BME280;28426;42.872;25.314;2023-02-17T04:56:47;97682.47;;;-3.89;88.96
42771;BME280;28426;42.872;25.314;2023-02-17T04:59:17;97693.56;;;-3.86;88.68
42771;BME280;28426;42.872;25.314;2023-02-17T05:01:51;97688.38;;;-3.86;89.25
42771;BME280;28426;42.872;25.314;2023-02-17T05:04:22;97689.41;;;-3.72;90.79
42771;BME280;28426;42.872;25.314;2023-02-17T05:06:55;97695.28;;;-3.69;87.93
42771;BME280;28426;42.872;25.314;2023-02-17T05:09:26;97699.84;;;-3.72;86.02
42771;BME280;28426;42.872;25.314;2023-02-17T05:11:56;97702.59;;;-3.75;86.50
42771;BME280;28426;42.872;25.314;2023-02-17T05:14:27;97704.41;;;-3.60;90.01
42771;BME280;28426;42.872;25.314;2023-02-17T05:16:57;97707.34;;;-3.50;89.40
42771;BME280;28426;42.872;25.314;2023-02-17T05:19:28;97709.25;;;-3.36;86.54
42771;BME280;28426;42.872;25.314;2023-02-17T05:22:01;97702.34;;;-3.37;85.18
42771;BME280;28426;42.872;25.314;2023-02-17T05:24:32;97715.69;;;-3.43;85.38
42771;BME280;28426;42.872;25.314;2023-02-17T05:27:05;97718.81;;;-3.52;86.35
42771;BME280;28426;42.872;25.314;2023-02-17T05:29:35;97726.47;;;-3.49;89.38
42771;BME280;28426;42.872;25.314;2023-02-17T05:32:06;97711.25;;;-3.41;88.60
42771;BME280;28426;42.872;25.314;2023-02-17T05:34:37;97718.59;;;-3.32;88.12
42771;BME280;28426;42.872;25.314;2023-02-17T05:37:10;97721.56;;;-3.22;87.58
42771;BME280;28426;42.872;25.314;2023-02-17T05:39:41;97723.75;;;-3.14;86.73
42771;BME280;28426;42.872;25.314;2023-02-17T05:42:12;97720.63;;;-3.05;86.62
42771;BME280;28426;42.872;25.314;2023-02-17T05:44:42;97722.72;;;-2.95;86.34
42771;BME280;28426;42.872;25.314;2023-02-17T05:47:13;97724.84;;;-2.86;85.73
42771;BME280;28426;42.872;25.314;2023-02-17T05:49:43;97718.69;;;-2.85;85.50
42771;BME280;28426;42.872;25.314;2023-02-17T05:52:17;97736.13;;;-2.69;85.06
42771;BME280;28426;42.872;25.314;2023-02-17T05:54:47;97736.44;;;-2.59;84.86
42771;BME280;28426;42.872;25.314;2023-02-17T05:57:18;97735.09;;;-2.51;84.76
42771;BME280;28426;42.872;25.314;2023-02-17T05:59:48;97740.72;;;-2.42;84.58
42771;BME280;28426;42.872;25.314;2023-02-17T06:02:20;97749.72;;;-2.32;84.13
42771;BME280;28426;42.872;25.314;2023-02-17T06:04:52;97748.34;;;-2.23;84.31
42771;BME280;28426;42.872;25.314;2023-02-17T06:07:25;97753.06;;;-2.14;83.65
42771;BME280;28426;42.872;25.314;2023-02-17T06:09:56;97751.66;;;-2.05;83.48
42771;BME280;28426;42.872;25.314;2023-02-17T06:12:27;97765.06;;;-1.95;83.27
42771;BME280;28426;42.872;25.314;2023-02-17T06:14:57;97757.47;;;-1.85;82.75
42771;BME280;28426;42.872;25.314;2023-02-17T06:17:29;97758.72;;;-1.76;82.07
42771;BME280;28426;42.872;25.314;2023-02-17T06:20:00;97757.91;;;-1.62;82.18
42771;BME280;28426;42.872;25.314;2023-02-17T06:22:33;97770.81;;;-1.45;82.23
42771;BME280;28426;42.872;25.314;2023-02-17T06:25:04;97768.13;;;-1.28;82.42
42771;BME280;28426;42.872;25.314;2023-02-17T06:27:35;97761.84;;;-1.11;82.01
42771;BME280;28426;42.872;25.314;2023-02-17T06:30:07;97765.19;;;-0.95;81.58
42771;BME280;28426;42.872;25.314;2023-02-17T06:32:38;97759.84;;;-0.78;80.62
42771;BME280;28426;42.872;25.314;2023-02-17T06:35:08;97771.00;;;-0.62;80.34
42771;BME280;28426;42.872;25.314;2023-02-17T06:37:41;97766.47;;;-0.45;80.35
42771;BME280;28426;42.872;25.314;2023-02-17T06:40:13;97766.13;;;-0.26;79.94
42771;BME280;28426;42.872;25.314;2023-02-17T06:42:43;97762.38;;;-0.09;79.21
42771;BME280;28426;42.872;25.314;2023-02-17T06:45:14;97765.34;;;0.12;79.42
42771;BME280;28426;42.872;25.314;2023-02-17T06:47:45;97763.06;;;0.34;78.57
42771;BME280;28426;42.872;25.314;2023-02-17T06:50:15;97767.72;;;0.56;78.03
42771;BME280;28426;42.872;25.314;2023-02-17T06:52:48;97765.28;;;0.79;77.60
42771;BME280;28426;42.872;25.314;2023-02-17T06:55:19;97762.09;;;1.00;76.21
42771;BME280;28426;42.872;25.314;2023-02-17T06:57:49;97762.25;;;1.23;75.72
42771;BME280;28426;42.872;25.314;2023-02-17T07:00:21;97770.19;;;1.47;75.59
42771;BME280;28426;42.872;25.314;2023-02-17T07:02:51;97762.28;;;1.72;75.51
42771;BME280;28426;42.872;25.314;2023-02-17T07:05:22;97765.63;;;1.98;75.06
42771;BME280;28426;42.872;25.314;2023-02-17T07:07:56;97760.91;;;2.26;75.68
42771;BME280;28426;42.872;25.314;2023-02-17T07:10:26;97766.38;;;2.59;74.99
42771;BME280;28426;42.872;25.314;2023-02-17T07:12:57;97764.00;;;2.90;74.58
42771;BME280;28426;42.872;25.314;2023-02-17T07:15:28;97756.28;;;3.21;74.36
42771;BME280;28426;42.872;25.314;2023-02-17T07:18:00;97760.53;;;3.57;73.15
42771;BME280;28426;42.872;25.314;2023-02-17T07:20:30;97754.44;;;3.89;72.49
42771;BME280;28426;42.872;25.314;2023-02-17T07:23:03;97759.16;;;4.28;71.00
42771;BME280;28426;42.872;25.314;2023-02-17T07:25:34;97760.94;;;4.70;68.80
42771;BME280;28426;42.872;25.314;2023-02-17T07:28:04;97758.75;;;5.16;71.52
42771;BME280;28426;42.872;25.314;2023-02-17T07:30:36;97762.50;;;5.65;68.29
42771;BME280;28426;42.872;25.314;2023-02-17T07:33:08;97761.69;;;6.13;67.50
42771;BME280;28426;42.872;25.314;2023-02-17T07:35:40;97762.16;;;6.66;66.34
42771;BME280;28426;42.872;25.314;2023-02-17T07:38:14;97761.88;;;7.17;66.13
42771;BME280;28426;42.872;25.314;2023-02-17T07:40:45;97764.13;;;7.58;62.42
42771;BME280;28426;42.872;25.314;2023-02-17T07:43:15;97768.03;;;8.01;62.05
42771;BME280;28426;42.872;25.314;2023-02-17T07:45:46;97766.56;;;8.43;62.04
42771;BME280;28426;42.872;25.314;2023-02-17T07:48:16;97756.97;;;8.68;58.62
42771;BME280;28426;42.872;25.314;2023-02-17T07:50:47;97759.84;;;9.10;57.88
42771;BME280;28426;42.872;25.314;2023-02-17T07:53:20;97768.94;;;9.42;57.75
42771;BME280;28426;42.872;25.314;2023-02-17T07:55:51;97757.38;;;9.68;57.37
42771;BME280;28426;42.872;25.314;2023-02-17T07:58:21;97767.09;;;9.94;56.55
42771;BME280;28426;42.872;25.314;2023-02-17T08:00:51;97768.44;;;10.15;56.09
42771;BME280;28426;42.872;25.314;2023-02-17T08:03:22;97760.59;;;10.30;54.49
42771;BME280;28426;42.872;25.314;2023-02-17T08:05:53;97761.81;;;10.44;54.11
42771;BME280;28426;42.872;25.314;2023-02-17T08:08:26;97766.97;;;10.54;52.71
42771;BME280;28426;42.872;25.314;2023-02-17T08:11:11;97765.75;;;10.73;53.08
42771;BME280;28426;42.872;25.314;2023-02-17T08:13:54;97760.56;;;10.88;52.15
42771;BME280;28426;42.872;25.314;2023-02-17T08:16:24;97762.56;;;10.94;50.66
42771;BME280;28426;42.872;25.314;2023-02-17T08:18:56;97761.88;;;11.01;50.35
42771;BME280;28426;42.872;25.314;2023-02-17T08:21:27;97765.53;;;11.08;50.05
42771;BME280;28426;42.872;25.314;2023-02-17T08:24:00;97766.97;;;11.19;49.68
42771;BME280;28426;42.872;25.314;2023-02-17T08:26:31;97766.94;;;11.27;47.46
42771;BME280;28426;42.872;25.314;2023-02-17T08:29:01;97773.91;;;11.36;48.04
42771;BME280;28426;42.872;25.314;2023-02-17T08:31:34;97773.53;;;11.48;47.72
42771;BME280;28426;42.872;25.314;2023-02-17T08:34:08;97773.16;;;11.59;46.29
42771;BME280;28426;42.872;25.314;2023-02-17T08:36:39;97773.41;;;11.73;46.23
42771;BME280;28426;42.872;25.314;2023-02-17T08:39:15;97774.50;;;11.87;45.72
42771;BME280;28426;42.872;25.314;2023-02-17T08:41:46;97773.28;;;11.98;45.12
42771;BME280;28426;42.872;25.314;2023-02-17T08:44:18;97773.56;;;12.03;44.42
42771;BME280;28426;42.872;25.314;2023-02-17T08:46:50;97775.22;;;12.04;44.02
42771;BME280;28426;42.872;25.314;2023-02-17T08:49:23;97778.09;;;12.02;43.93
42771;BME280;28426;42.872;25.314;2023-02-17T08:51:56;97776.97;;;11.97;43.46
42771;BME280;28426;42.872;25.314;2023-02-17T08:54:29;97777.66;;;11.90;43.62
42771;BME280;28426;42.872;25.314;2023-02-17T08:57:00;97773.34;;;11.81;42.61
42771;BME280;28426;42.872;25.314;2023-02-17T08:59:31;97766.56;;;11.70;42.63
42771;BME280;28426;42.872;25.314;2023-02-17T09:02:02;97768.00;;;11.58;42.61
42771;BME280;28426;42.872;25.314;2023-02-17T09:04:33;97766.38;;;11.48;42.87
42771;BME280;28426;42.872;25.314;2023-02-17T09:07:03;97763.19;;;11.45;43.35
42771;BME280;28426;42.872;25.314;2023-02-17T09:09:37;97762.72;;;11.41;42.87
42771;BME280;28426;42.872;25.314;2023-02-17T09:12:07;97760.22;;;11.40;42.60
42771;BME280;28426;42.872;25.314;2023-02-17T09:14:38;97761.22;;;11.38;42.95
42771;BME280;28426;42.872;25.314;2023-02-17T09:17:09;97753.38;;;11.37;42.59
42771;BME280;28426;42.872;25.314;2023-02-17T09:19:40;97748.56;;;11.32;42.40
42771;BME280;28426;42.872;25.314;2023-02-17T09:22:10;97753.06;;;11.32;42.25
42771;BME280;28426;42.872;25.314;2023-02-17T09:25:00;97750.88;;;11.35;43.53
42771;BME280;28426;42.872;25.314;2023-02-17T09:27:31;97744.66;;;11.43;42.82
42771;BME280;28426;42.872;25.314;2023-02-17T09:30:02;97738.25;;;11.52;43.52
42771;BME280;28426;42.872;25.314;2023-02-17T09:32:33;97739.38;;;11.67;42.85
42771;BME280;28426;42.872;25.314;2023-02-17T09:35:04;97742.97;;;11.82;42.66
42771;BME280;28426;42.872;25.314;2023-02-17T09:37:35;97735.47;;;12.01;42.05
42771;BME280;28426;42.872;25.314;2023-02-17T09:40:15;97734.00;;;12.22;41.37
42771;BME280;28426;42.872;25.314;2023-02-17T09:42:46;97734.50;;;12.40;41.25
42771;BME280;28426;42.872;25.314;2023-02-17T09:45:21;97731.31;;;12.60;41.26
42771;BME280;28426;42.872;25.314;2023-02-17T09:47:55;97731.97;;;12.77;40.00
42771;BME280;28426;42.872;25.314;2023-02-17T09:50:33;97726.63;;;12.92;37.47
42771;BME280;28426;42.872;25.314;2023-02-17T09:53:10;97720.44;;;13.07;38.77
42771;BME280;28426;42.872;25.314;2023-02-17T09:55:50;97725.16;;;13.20;38.26
42771;BME280;28426;42.872;25.314;2023-02-17T09:58:25;97728.44;;;13.37;39.24
42771;BME280;28426;42.872;25.314;2023-02-17T10:00:58;97722.59;;;13.49;38.82
42771;BME280;28426;42.872;25.314;2023-02-17T10:03:33;97727.94;;;13.64;39.02
42771;BME280;28426;42.872;25.314;2023-02-17T10:06:12;97718.19;;;13.78;37.54
42771;BME280;28426;42.872;25.314;2023-02-17T10:08:49;97707.97;;;13.88;37.72
42771;BME280;28426;42.872;25.314;2023-02-17T10:11:27;97713.03;;;13.98;37.35
42771;BME280;28426;42.872;25.314;2023-02-17T10:14:02;97701.16;;;14.07;37.34
42771;BME280;28426;42.872;25.314;2023-02-17T10:16:37;97709.44;;;14.12;36.50
42771;BME280;28426;42.872;25.314;2023-02-17T10:19:13;97700.34;;;14.13;36.60
42771;BME280;28426;42.872;25.314;2023-02-17T10:21:49;97702.78;;;14.08;36.31
42771;BME280;28426;42.872;25.314;2023-02-17T10:24:21;97704.00;;;14.06;35.89
42771;BME280;28426;42.872;25.314;2023-02-17T10:27:04;97700.44;;;13.98;34.68
42771;BME280;28426;42.872;25.314;2023-02-17T10:29:44;97695.47;;;13.95;33.51
42771;BME280;28426;42.872;25.314;2023-02-17T10:32:21;97695.84;;;13.92;34.88
42771;BME280;28426;42.872;25.314;2023-02-17T10:35:09;97696.03;;;13.91;33.85
42771;BME280;28426;42.872;25.314;2023-02-17T10:37:45;97695.22;;;13.90;34.79
42771;BME280;28426;42.872;25.314;2023-02-17T10:40:19;97694.19;;;13.91;34.77
42771;BME280;28426;42.872;25.314;2023-02-17T10:42:56;97689.44;;;13.93;33.48
42771;BME280;28426;42.872;25.314;2023-02-17T10:45:35;97687.22;;;13.97;33.31
42771;BME280;28426;42.872;25.314;2023-02-17T10:48:11;97691.38;;;13.99;31.05
42771;BME280;28426;42.872;25.314;2023-02-17T10:50:45;97687.72;;;14.07;32.48
42771;BME280;28426;42.872;25.314;2023-02-17T10:53:18;97695.03;;;14.20;33.02
42771;BME280;28426;42.872;25.314;2023-02-17T10:55:54;97695.63;;;14.37;32.99
42771;BME280;28426;42.872;25.314;2023-02-17T10:58:35;97680.03;;;14.55;31.33
42771;BME280;28426;42.872;25.314;2023-02-17T11:01:07;97676.19;;;14.71;32.87
42771;BME280;28426;42.872;25.314;2023-02-17T11:03:39;97670.75;;;14.86;32.44
42771;BME280;28426;42.872;25.314;2023-02-17T11:06:16;97674.13;;;15.01;33.02
42771;BME280;28426;42.872;25.314;2023-02-17T11:08:50;97673.16;;;15.16;32.67
42771;BME280;28426;42.872;25.314;2023-02-17T11:11:23;97671.13;;;15.32;31.72
42771;BME280;28426;42.872;25.314;2023-02-17T11:14:07;97671.38;;;15.43;31.35
42771;BME280;28426;42.872;25.314;2023-02-17T11:16:41;97658.59;;;15.52;29.76
42771;BME280;28426;42.872;25.314;2023-02-17T11:19:22;97660.06;;;15.62;30.08
42771;BME280;28426;42.872;25.314;2023-02-17T11:21:56;97656.16;;;15.71;30.74
42771;BME280;28426;42.872;25.314;2023-02-17T11:24:29;97652.22;;;15.80;29.65
42771;BME280;28426;42.872;25.314;2023-02-17T11:27:03;97649.13;;;15.90;30.45
42771;BME280;28426;42.872;25.314;2023-02-17T11:29:37;97659.50;;;16.00;29.80
42771;BME280;28426;42.872;25.314;2023-02-17T11:32:10;97649.38;;;16.09;30.65
42771;BME280;28426;42.872;25.314;2023-02-17T11:34:43;97645.44;;;16.18;29.94
42771;BME280;28426;42.872;25.314;2023-02-17T11:37:20;97642.75;;;16.25;28.75
42771;BME280;28426;42.872;25.314;2023-02-17T11:39:52;97655.34;;;16.31;29.79
42771;BME280;28426;42.872;25.314;2023-02-17T11:42:24;97657.84;;;16.40;29.54
42771;BME280;28426;42.872;25.314;2023-02-17T11:44:59;97647.66;;;16.42;28.04
42771;BME280;28426;42.872;25.314;2023-02-17T11:47:36;97649.34;;;16.50;29.39
42771;BME280;28426;42.872;25.314;2023-02-17T11:50:20;97643.31;;;16.54;26.26
42771;BME280;28426;42.872;25.314;2023-02-17T11:53:19;97640.41;;;16.63;28.22
42771;BME280;28426;42.872;25.314;2023-02-17T11:56:01;97641.22;;;16.70;29.22
42771;BME280;28426;42.872;25.314;2023-02-17T11:59:07;97630.41;;;16.77;27.29
42771;BME280;28426;42.872;25.314;2023-02-17T12:02:11;97620.22;;;16.85;26.59
42771;BME280;28426;42.872;25.314;2023-02-17T12:05:02;97631.81;;;16.93;26.95
42771;BME280;28426;42.872;25.314;2023-02-17T12:07:48;97640.69;;;17.00;27.97
42771;BME280;28426;42.872;25.314;2023-02-17T12:10:27;97631.16;;;17.04;27.62
42771;BME280;28426;42.872;25.314;2023-02-17T12:13:12;97629.47;;;17.10;27.95
42771;BME280;28426;42.872;25.314;2023-02-17T12:15:58;97629.47;;;17.10;27.11
42771;BME280;28426;42.872;25.314;2023-02-17T12:18:52;97634.88;;;17.03;26.14
42771;BME280;28426;42.872;25.314;2023-02-17T12:21:40;97607.59;;;16.86;25.03
42771;BME280;28426;42.872;25.314;2023-02-17T12:24:32;97626.69;;;16.78;26.28
42771;BME280;28426;42.872;25.314;2023-02-17T12:27:11;97621.13;;;16.66;27.13
42771;BME280;28426;42.872;25.314;2023-02-17T12:30:05;97618.22;;;16.60;27.07
42771;BME280;28426;42.872;25.314;2023-02-17T12:33:05;97621.13;;;16.66;26.98
42771;BME280;28426;42.872;25.314;2023-02-17T12:35:46;97622.13;;;16.71;27.73
42771;BME280;28426;42.872;25.314;2023-02-17T12:38:24;97621.69;;;16.81;27.53
42771;BME280;28426;42.872;25.314;2023-02-17T12:41:00;97626.63;;;16.91;28.07
42771;BME280;28426;42.872;25.314;2023-02-17T12:43:38;97618.34;;;16.93;28.18
42771;BME280;28426;42.872;25.314;2023-02-17T12:46:14;97613.97;;;16.92;27.63
42771;BME280;28426;42.872;25.314;2023-02-17T12:48:50;97622.50;;;16.89;26.64
42771;BME280;28426;42.872;25.314;2023-02-17T12:51:27;97621.91;;;16.73;26.26
42771;BME280;28426;42.872;25.314;2023-02-17T12:54:03;97632.94;;;16.51;25.81
42771;BME280;28426;42.872;25.314;2023-02-17T12:56:46;97633.63;;;16.26;26.74
42771;BME280;28426;42.872;25.314;2023-02-17T12:59:19;97633.22;;;16.02;26.82
42771;BME280;28426;42.872;25.314;2023-02-17T13:01:55;97630.69;;;15.80;27.39
42771;BME280;28426;42.872;25.314;2023-02-17T13:04:29;97628.78;;;15.61;27.48
42771;BME280;28426;42.872;25.314;2023-02-17T13:10:15;97627.50;;;15.29;28.18
42771;BME280;28426;42.872;25.314;2023-02-17T13:12:59;97629.09;;;15.10;27.67
42771;BME280;28426;42.872;25.314;2023-02-17T13:15:33;97631.53;;;14.98;27.77
42771;BME280;28426;42.872;25.314;2023-02-17T13:18:05;97648.59;;;14.84;27.29
42771;BME280;28426;42.872;25.314;2023-02-17T13:20:52;97647.03;;;14.68;27.78
42771;BME280;28426;42.872;25.314;2023-02-17T13:23:34;97645.72;;;14.57;27.99
42771;BME280;28426;42.872;25.314;2023-02-17T13:29:19;97643.56;;;14.38;27.95
42771;BME280;28426;42.872;25.314;2023-02-17T13:31:52;97641.66;;;14.32;28.66
42771;BME280;28426;42.872;25.314;2023-02-17T13:34:26;97636.88;;;14.28;28.81
42771;BME280;28426;42.872;25.314;2023-02-17T13:36:57;97636.47;;;14.24;29.31